Time;durP1;ratioP1;P1;durP2;ratioP2;P2;SDS_P1;SDS_P2;PMS_P1;PMS_P2;Temp;Humidity;BMP_temperature;BMP_pressure;BME280_temperature;BME280_humidity;BME280_pressure;Samples;Min_cycle;Max_cycle;Signal;HPM_P1;HPM_P2
2024/01/06 00:01:45;;;;;;;1.60;1.30;;;;;;;7.06;100.00;100566.47;5095688;27;96934;-28
2024/01/06 00:04:11;;;;;;;2.67;2.38;;;;;;;7.05;100.00;100581.72;5095172;27;97878;-28
2024/01/06 00:06:36;;;;;;;1.83;1.48;;;;;;;6.99;100.00;100571.28;5095389;27;97769;-28
2024/01/06 00:09:02;;;;;;;2.33;1.52;;;;;;;7.00;100.00;100573.88;5095961;27;96640;-28
2024/01/06 00:11:27;;;;;;;1.17;1.08;;;;;;;7.06;100.00;100582.63;5095512;27;96984;-28
2024/01/06 00:13:52;;;;;;;3.13;2.08;;;;;;;6.99;100.00;100582.06;5095766;27;97354;-28
2024/01/06 00:16:18;;;;;;;3.20;1.48;;;;;;;6.93;100.00;100579.66;5095221;27;98947;-28
2024/01/06 00:18:45;;;;;;;3.10;2.03;;;;;;;6.87;100.00;100583.56;5077155;27;96571;-28
2024/01/06 00:21:10;;;;;;;2.05;1.27;;;;;;;6.88;100.00;100600.56;5080927;27;96826;-27
2024/01/06 00:23:35;;;;;;;1.00;0.95;;;;;;;6.82;100.00;100596.38;5098375;27;108294;-28
2024/01/06 00:26:00;;;;;;;1.50;1.35;;;;;;;6.76;100.00;100602.06;5098218;27;102313;-27
2024/01/06 00:28:26;;;;;;;1.60;1.00;;;;;;;6.73;100.00;100597.69;5098642;27;96715;-28
2024/01/06 00:30:51;;;;;;;1.25;0.95;;;;;;;6.67;100.00;100598.00;5098870;27;96826;-28
2024/01/06 00:33:16;;;;;;;1.42;0.90;;;;;;;6.68;100.00;100610.53;5098694;27;100487;-28
2024/01/06 00:35:42;;;;;;;1.90;1.27;;;;;;;6.74;100.00;100598.56;5098646;27;99264;-27
2024/01/06 00:38:07;;;;;;;1.73;1.30;;;;;;;6.75;100.00;100601.19;5098735;27;96670;-27
2024/01/06 00:40:33;;;;;;;4.10;1.33;;;;;;;6.77;100.00;100603.81;5098821;27;96860;-28
2024/01/06 00:42:58;;;;;;;1.90;1.33;;;;;;;6.67;100.00;100598.00;5098412;27;98241;-28
2024/01/06 00:45:24;;;;;;;1.48;0.73;;;;;;;6.63;100.00;100595.56;5098589;27;99680;-28
2024/01/06 00:47:49;;;;;;;1.30;0.60;;;;;;;6.62;100.00;100608.13;5098704;27;96745;-28
2024/01/06 00:50:15;;;;;;;0.70;0.70;;;;;;;6.61;100.00;100627.06;5098833;27;96795;-28
2024/01/06 00:52:41;;;;;;;4.90;2.17;;;;;;;6.55;100.00;100623.72;5097552;27;99409;-27
2024/01/06 00:55:07;;;;;;;1.95;1.50;;;;;;;6.51;100.00;100629.31;5079546;27;101158;-27
2024/01/06 00:57:33;;;;;;;2.15;1.17;;;;;;;6.50;100.00;100628.41;5079962;27;96539;-27
2024/01/06 00:59:58;;;;;;;1.52;1.05;;;;;;;6.42;100.00;100613.63;5098757;27;96771;-28
2024/01/06 01:02:23;;;;;;;0.70;0.70;;;;;;;6.53;100.00;100632.78;5098129;27;97967;-30
2024/01/06 01:04:48;;;;;;;2.67;0.90;;;;;;;6.44;100.00;100625.19;5098399;27;97911;-27
2024/01/06 01:07:14;;;;;;;2.05;1.00;;;;;;;6.46;100.00;100626.84;5098602;27;96539;-28
2024/01/06 01:09:39;;;;;;;0.73;0.70;;;;;;;6.51;100.00;100632.00;5098511;27;97199;-27
2024/01/06 01:12:05;;;;;;;1.02;0.85;;;;;;;6.50;100.00;100639.19;5098286;27;97469;-28
2024/01/06 01:14:30;;;;;;;0.55;0.45;;;;;;;6.52;100.00;100637.28;5098186;27;97330;-27
2024/01/06 01:16:55;;;;;;;0.55;0.55;;;;;;;6.49;100.00;100653.59;5097851;27;96711;-28
2024/01/06 01:19:21;;;;;;;0.68;0.57;;;;;;;6.47;100.00;100657.31;5098023;27;96886;-28
2024/01/06 01:21:46;;;;;;;2.65;1.05;;;;;;;6.40;100.00;100667.47;5097941;27;97912;-28
2024/01/06 01:24:11;;;;;;;2.13;1.33;;;;;;;6.35;100.00;100664.16;5097965;27;97254;-28
2024/01/06 01:26:37;;;;;;;2.47;0.60;;;;;;;6.30;100.00;100669.72;5098174;27;96564;-28
2024/01/06 01:29:02;;;;;;;0.98;0.68;;;;;;;6.33;100.00;100672.28;5098127;27;96840;-28
2024/01/06 01:31:27;;;;;;;0.43;0.43;;;;;;;6.30;100.00;100674.25;5096712;27;97958;-27
2024/01/06 01:33:52;;;;;;;0.80;0.60;;;;;;;6.32;100.00;100670.53;5098064;27;99281;-28
2024/01/06 01:36:18;;;;;;;0.95;0.70;;;;;;;6.29;100.00;100678.75;5098050;27;96635;-28
2024/01/06 01:38:43;;;;;;;1.30;1.17;;;;;;;6.28;100.00;100682.38;5097668;27;96845;-29
2024/01/06 01:41:09;;;;;;;0.32;0.32;;;;;;;6.31;100.00;100689.44;5096993;27;99391;-27
2024/01/06 01:43:34;;;;;;;0.63;0.57;;;;;;;6.30;100.00;100687.69;5097499;27;97254;-28
2024/01/06 01:46:00;;;;;;;0.50;0.47;;;;;;;6.38;100.00;100693.56;5097596;27;96616;-28
2024/01/06 01:48:25;;;;;;;0.77;0.70;;;;;;;6.42;100.00;100692.50;5097690;27;96714;-28
2024/01/06 01:50:52;;;;;;;0.70;0.47;;;;;;;6.31;100.00;100692.97;5097482;27;97798;-29
2024/01/06 01:53:18;;;;;;;0.77;0.63;;;;;;;6.33;100.00;100696.47;5078719;27;100928;-28
2024/01/06 01:55:44;;;;;;;1.10;0.80;;;;;;;6.31;100.00;100689.44;5097643;27;96556;-27
2024/01/06 01:58:11;;;;;;;0.55;0.45;;;;;;;6.29;100.00;100702.06;5079549;27;96962;-29
2024/01/06 02:00:37;;;;;;;0.30;0.30;;;;;;;6.21;100.00;100698.88;5078296;27;101221;-28
2024/01/06 02:03:04;;;;;;;0.17;0.17;;;;;;;6.24;100.00;100702.28;5097193;27;99264;-28
2024/01/06 02:05:30;;;;;;;1.83;0.60;;;;;;;6.27;100.00;100706.66;5078302;27;96600;-28
2024/01/06 02:07:56;;;;;;;1.77;0.85;;;;;;;6.23;100.00;100705.94;5097954;27;96782;-27
2024/01/06 02:10:22;;;;;;;0.50;0.40;;;;;;;6.20;100.00;100707.88;5096971;27;99544;-29
2024/01/06 02:12:48;;;;;;;0.22;0.22;;;;;;;6.25;100.00;100722.00;5078689;27;101162;-27
2024/01/06 02:15:14;;;;;;;1.17;0.77;;;;;;;6.18;100.00;100713.34;5078825;27;96473;-28
2024/01/06 02:17:39;;;;;;;0.45;0.45;;;;;;;6.19;100.00;100715.06;5078723;27;96907;-28
2024/01/06 02:20:06;;;;;;;0.85;0.73;;;;;;;6.18;100.00;100718.72;5097172;27;98007;-27
2024/01/06 02:22:32;;;;;;;0.57;0.40;;;;;;;6.24;100.00;100721.09;5078283;27;100976;-28
2024/01/06 02:24:58;;;;;;;0.10;0.10;;;;;;;6.14;100.00;100736.78;5078615;27;96548;-28
2024/01/06 02:27:23;;;;;;;0.45;0.45;;;;;;;6.18;100.00;100744.75;5097012;27;96823;-27
2024/01/06 02:29:49;;;;;;;0.40;0.40;;;;;;;6.09;100.00;100746.03;5096109;27;102468;-27
2024/01/06 02:32:14;;;;;;;0.30;0.30;;;;;;;6.06;100.00;100748.84;5096613;27;103344;-27
2024/01/06 02:34:39;;;;;;;0.13;0.13;;;;;;;6.06;100.00;100751.53;5096793;27;98159;-28
2024/01/06 02:37:05;;;;;;;0.17;0.17;;;;;;;6.06;100.00;100754.22;5096924;27;97039;-29
2024/01/06 02:39:30;;;;;;;0.47;0.38;;;;;;;6.05;100.00;100756.03;5078306;27;99272;-27
2024/01/06 02:41:55;;;;;;;0.55;0.32;;;;;;;6.02;100.00;100766.91;5096047;27;99168;-28
2024/01/06 02:44:21;;;;;;;0.45;0.45;;;;;;;5.95;100.00;100760.06;5097080;27;96485;-28
2024/01/06 02:46:46;;;;;;;1.38;0.20;;;;;;;5.89;100.00;100769.25;5097247;27;96829;-28
2024/01/06 02:49:11;;;;;;;0.52;0.52;;;;;;;5.85;100.00;100764.06;5096854;27;99528;-28
2024/01/06 02:51:37;;;;;;;0.80;0.40;;;;;;;5.88;100.00;100783.63;5096316;27;97114;-28
2024/01/06 02:54:02;;;;;;;0.30;0.30;;;;;;;5.89;100.00;100787.19;5096209;27;96521;-28
2024/01/06 02:56:27;;;;;;;0.10;0.10;;;;;;;5.95;100.00;100790.50;5096576;27;96827;-29
2024/01/06 02:58:53;;;;;;;1.48;0.52;;;;;;;5.99;100.00;100787.72;5096406;27;97863;-27
2024/01/06 03:01:18;;;;;;;0.15;0.15;;;;;;;6.01;100.00;100788.53;5095919;27;99246;-27
2024/01/06 03:03:43;;;;;;;2.03;0.60;;;;;;;6.01;100.00;100781.31;5096726;27;96593;-27
2024/01/06 03:06:09;;;;;;;0.30;0.28;;;;;;;6.02;100.00;100792.94;5096446;27;96863;-29
2024/01/06 03:08:34;;;;;;;0.30;0.30;;;;;;;5.85;100.00;100783.75;5096279;27;98395;-27
2024/01/06 03:11:00;;;;;;;0.40;0.30;;;;;;;5.83;100.00;100791.00;5096388;27;99494;-29
2024/01/06 03:13:25;;;;;;;3.85;0.32;;;;;;;5.81;100.00;100798.25;5096424;27;96501;-28
2024/01/06 03:15:50;;;;;;;0.32;0.32;;;;;;;5.71;100.00;100799.59;5096587;27;96749;-28
2024/01/06 03:18:16;;;;;;;0.22;0.22;;;;;;;5.68;100.00;100803.28;5095702;27;98956;-27
2024/01/06 03:20:41;;;;;;;0.20;0.17;;;;;;;5.67;100.00;100795.28;5095802;27;98838;-28
2024/01/06 03:23:06;;;;;;;0.32;0.32;;;;;;;5.67;100.00;100809.63;5096210;27;96660;-27
2024/01/06 03:25:32;;;;;;;0.40;0.40;;;;;;;5.60;100.00;100801.84;5096031;27;96840;-28
2024/01/06 03:27:57;;;;;;;0.40;0.40;;;;;;;5.56;100.00;100802.94;5095837;27;99657;-27
2024/01/06 03:30:22;;;;;;;0.30;0.28;;;;;;;5.60;100.00;100813.50;5095991;27;101331;-28
2024/01/06 03:32:48;;;;;;;0.30;0.22;;;;;;;5.64;100.00;100817.78;5096185;27;96664;-27
2024/01/06 03:35:13;;;;;;;0.10;0.10;;;;;;;5.57;100.00;100807.38;5096796;27;96895;-28
2024/01/06 03:37:39;;;;;;;0.65;0.40;;;;;;;5.61;100.00;100819.75;5095265;27;99688;-28
2024/01/06 03:40:06;;;;;;;0.50;0.50;;;;;;;5.62;100.00;100825.03;5095456;27;106128;-29
2024/01/06 03:42:32;;;;;;;0.40;0.40;;;;;;;5.65;100.00;100829.41;5077031;27;96836;-28
2024/01/06 03:44:57;;;;;;;0.13;0.13;;;;;;;5.66;100.00;100823.09;5077270;27;96874;-27
2024/01/06 03:47:22;;;;;;;0.52;0.52;;;;;;;5.60;100.00;100823.34;5095713;27;97879;-28
2024/01/06 03:49:48;;;;;;;0.32;0.32;;;;;;;5.58;100.00;100827.91;5095807;27;100584;-27
2024/01/06 03:52:13;;;;;;;0.50;0.47;;;;;;;5.65;100.00;100842.84;5095430;27;96851;-28
2024/01/06 03:54:39;;;;;;;0.68;0.65;;;;;;;5.62;100.00;100840.28;5097248;27;96578;-27
2024/01/06 03:57:04;;;;;;;0.30;0.30;;;;;;;5.62;100.00;100848.34;5099372;27;97934;-28
2024/01/06 03:59:29;;;;;;;0.95;0.80;;;;;;;5.61;100.00;100850.16;5099542;27;98858;-28
2024/01/06 04:01:55;;;;;;;0.65;0.65;;;;;;;5.57;100.00;100844.97;5099114;27;96756;-28
2024/01/06 04:04:20;;;;;;;1.08;0.98;;;;;;;5.58;100.00;100855.66;5099781;27;96832;-28
2024/01/06 04:06:45;;;;;;;0.40;0.40;;;;;;;5.59;100.00;100861.91;5098580;27;97478;-28
2024/01/06 04:09:10;;;;;;;1.00;0.60;;;;;;;5.51;100.00;100863.09;5099311;27;97426;-28
2024/01/06 04:11:36;;;;;;;1.48;0.55;;;;;;;5.48;100.00;100868.59;5099521;27;96548;-29
2024/01/06 04:14:01;;;;;;;1.95;0.63;;;;;;;5.43;100.00;100859.81;5099284;27;96836;-27
2024/01/06 04:16:29;;;;;;;0.43;0.38;;;;;;;5.41;100.00;100863.50;5098995;27;100013;-27
2024/01/06 04:18:55;;;;;;;0.32;0.20;;;;;;;5.46;100.00;100878.53;5098879;27;98889;-29
2024/01/06 04:21:20;;;;;;;0.30;0.30;;;;;;;5.44;100.00;100877.72;5098839;27;96608;-27
2024/01/06 04:23:45;;;;;;;0.50;0.50;;;;;;;5.44;100.00;100879.53;5099810;27;96833;-28
2024/01/06 04:26:11;;;;;;;0.93;0.30;;;;;;;5.36;100.00;100876.25;5098848;27;97977;-28
2024/01/06 04:28:36;;;;;;;0.80;0.63;;;;;;;5.39;100.00;100878.84;5098990;27;97844;-28
2024/01/06 04:31:01;;;;;;;0.30;0.30;;;;;;;5.39;100.00;100887.78;5098548;27;96597;-28
2024/01/06 04:33:27;;;;;;;0.35;0.35;;;;;;;5.41;100.00;100893.97;5099056;27;96963;-28
2024/01/06 04:35:53;;;;;;;0.38;0.30;;;;;;;5.42;100.00;100887.63;5098411;27;99506;-27
2024/01/06 04:38:18;;;;;;;0.60;0.50;;;;;;;5.39;100.00;100889.59;5098406;27;99698;-28
2024/01/06 04:40:43;;;;;;;0.75;0.52;;;;;;;5.45;100.00;100892.00;5099205;27;96456;-27
2024/01/06 04:43:09;;;;;;;0.13;0.13;;;;;;;5.45;100.00;100890.19;5098967;27;96829;-27
2024/01/06 04:45:34;;;;;;;0.60;0.57;;;;;;;5.50;100.00;100887.31;5098691;27;97975;-28
2024/01/06 04:47:59;;;;;;;0.85;0.63;;;;;;;5.49;100.00;100891.84;5098766;27;99108;-28
2024/01/06 04:50:25;;;;;;;0.38;0.32;;;;;;;5.49;100.00;100894.50;5099148;27;96574;-28
2024/01/06 04:52:50;;;;;;;1.50;0.90;;;;;;;5.51;100.00;100889.97;5098510;27;96785;-27
2024/01/06 04:55:15;;;;;;;1.25;0.73;;;;;;;5.51;100.00;100899.84;5097691;27;105687;-28
2024/01/06 04:57:41;;;;;;;0.45;0.38;;;;;;;5.49;100.00;100897.22;5098547;27;97345;-27
2024/01/06 05:00:07;;;;;;;1.35;0.88;;;;;;;5.36;100.00;100889.69;5098737;27;96628;-28
2024/01/06 05:02:32;;;;;;;0.57;0.40;;;;;;;5.43;100.00;100901.94;5079699;27;96908;-27
2024/01/06 05:04:58;;;;;;;0.82;0.65;;;;;;;5.40;100.00;100902.94;5097772;27;99446;-27
2024/01/06 05:07:23;;;;;;;0.93;0.68;;;;;;;5.41;100.00;100903.81;5097837;27;99189;-27
2024/01/06 05:09:48;;;;;;;0.20;0.20;;;;;;;5.50;100.00;100912.38;5098767;27;96551;-28
2024/01/06 05:12:14;;;;;;;0.95;0.32;;;;;;;5.51;100.00;100916.81;5098463;27;96895;-28
2024/01/06 05:14:39;;;;;;;4.10;0.52;;;;;;;5.54;100.00;100922.06;5097998;27;99606;-27
2024/01/06 05:17:04;;;;;;;0.82;0.82;;;;;;;5.52;100.00;100920.38;5098281;27;97764;-27
2024/01/06 05:19:31;;;;;;;0.32;0.32;;;;;;;5.49;100.00;100924.06;5097681;27;96604;-27
2024/01/06 05:21:57;;;;;;;0.32;0.30;;;;;;;5.46;100.00;100913.44;5098035;27;96919;-27
2024/01/06 05:24:22;;;;;;;5.35;0.77;;;;;;;5.48;100.00;100921.44;5098137;27;97954;-27
2024/01/06 05:26:47;;;;;;;0.60;0.60;;;;;;;5.49;100.00;100934.81;5097867;27;97297;-28
2024/01/06 05:29:13;;;;;;;1.13;0.75;;;;;;;5.49;100.00;100936.63;5098226;27;96614;-27
2024/01/06 05:31:38;;;;;;;0.63;0.52;;;;;;;5.41;100.00;100931.56;5098362;27;96778;-27
2024/01/06 05:34:04;;;;;;;0.40;0.40;;;;;;;5.40;100.00;100935.16;5097974;27;98021;-27
2024/01/06 05:36:29;;;;;;;0.57;0.57;;;;;;;5.42;100.00;100937.81;5097938;27;99704;-27
2024/01/06 05:38:55;;;;;;;0.50;0.45;;;;;;;5.33;100.00;100936.34;5098072;27;96485;-27
2024/01/06 05:41:20;;;;;;;0.15;0.15;;;;;;;5.28;100.00;100951.75;5098187;27;96765;-28
2024/01/06 05:43:45;;;;;;;0.57;0.57;;;;;;;5.28;100.00;100941.00;5097081;27;97934;-28
2024/01/06 05:46:11;;;;;;;0.28;0.28;;;;;;;5.33;100.00;100955.13;5097410;27;103284;-29
2024/01/06 05:48:36;;;;;;;1.35;0.70;;;;;;;5.32;100.00;100964.16;5097859;27;96737;-28
2024/01/06 05:51:05;;;;;;;0.47;0.28;;;;;;;5.25;100.00;100963.50;5097769;27;96891;-28
2024/01/06 05:53:30;;;;;;;0.70;0.70;;;;;;;5.25;100.00;100963.50;5078801;27;101273;-28
2024/01/06 05:55:56;;;;;;;0.40;0.40;;;;;;;5.25;100.00;100965.31;5097364;27;97297;-27
2024/01/06 05:58:21;;;;;;;0.40;0.40;;;;;;;5.22;100.00;100960.03;5097859;27;96749;-27
2024/01/06 06:00:47;;;;;;;0.70;0.47;;;;;;;5.30;100.00;100974.06;5097589;27;96842;-29
2024/01/06 06:03:12;;;;;;;1.08;0.47;;;;;;;5.28;100.00;100984.00;5097206;27;99527;-27
2024/01/06 06:05:37;;;;;;;0.10;0.10;;;;;;;5.30;100.00;100987.50;5097089;27;99868;-28
2024/01/06 06:08:03;;;;;;;0.45;0.45;;;;;;;5.32;100.00;100996.38;5097103;27;96431;-27
2024/01/06 06:10:40;;;;;;;0.43;0.43;;;;;;;5.36;100.00;100998.00;5097727;27;96796;-28
2024/01/06 06:13:06;;;;;;;0.17;0.17;;;;;;;5.32;100.00;100991.00;5097127;27;98796;-27
2024/01/06 06:15:32;;;;;;;0.55;0.43;;;;;;;5.38;100.00;101001.50;5097605;27;97212;-29
2024/01/06 06:18:00;;;;;;;1.15;0.68;;;;;;;5.33;100.00;101004.34;5096362;27;96801;-28
2024/01/06 06:20:25;;;;;;;0.80;0.50;;;;;;;5.25;100.00;101011.84;5078817;27;96904;-29
2024/01/06 06:22:51;;;;;;;0.30;0.25;;;;;;;5.31;100.00;101021.47;5097084;27;97413;-28
2024/01/06 06:25:16;;;;;;;0.30;0.22;;;;;;;5.27;100.00;101012.66;5097104;27;98869;-27
2024/01/06 06:27:41;;;;;;;2.22;0.63;;;;;;;5.23;100.00;101018.19;5096844;27;96803;-28
2024/01/06 06:30:08;;;;;;;1.15;0.85;;;;;;;5.25;100.00;101021.72;5097358;27;96857;-28
2024/01/06 06:32:33;;;;;;;0.43;0.40;;;;;;;5.28;100.00;101032.31;5077554;27;101073;-28
2024/01/06 06:34:58;;;;;;;0.15;0.15;;;;;;;5.19;100.00;101032.66;5096674;27;99207;-28
2024/01/06 06:37:24;;;;;;;1.20;0.85;;;;;;;5.19;100.00;101032.66;5078407;27;96465;-29
2024/01/06 06:39:49;;;;;;;0.85;0.55;;;;;;;5.21;100.00;101044.22;5097266;27;96798;-29
2024/01/06 06:42:14;;;;;;;1.92;1.02;;;;;;;5.22;100.00;101048.66;5096713;27;97299;-28
2024/01/06 06:44:40;;;;;;;0.63;0.60;;;;;;;5.24;100.00;101049.47;5096460;27;97295;-28
2024/01/06 06:47:05;;;;;;;0.75;0.55;;;;;;;5.21;100.00;101053.16;5096736;27;96721;-29
2024/01/06 06:49:30;;;;;;;0.60;0.60;;;;;;;5.15;100.00;101060.53;5097451;27;96831;-28
2024/01/06 06:51:56;;;;;;;0.50;0.43;;;;;;;5.16;100.00;101065.00;5096444;27;97689;-28
2024/01/06 06:54:21;;;;;;;0.25;0.17;;;;;;;5.15;100.00;101066.81;5096268;27;98522;-28
2024/01/06 06:56:47;;;;;;;0.32;0.32;;;;;;;5.08;100.00;101054.53;5096074;27;96588;-27
2024/01/06 06:59:12;;;;;;;2.20;0.82;;;;;;;5.10;100.00;101069.66;5096635;27;96853;-28
2024/01/06 07:01:37;;;;;;;0.63;0.30;;;;;;;5.10;100.00;101066.97;5095794;27;98772;-28
2024/01/06 07:04:03;;;;;;;0.40;0.30;;;;;;;5.11;100.00;101074.09;5095953;27;99196;-28
2024/01/06 07:06:29;;;;;;;0.22;0.22;;;;;;;5.09;100.00;101075.94;5096682;27;96575;-27
2024/01/06 07:08:55;;;;;;;0.35;0.35;;;;;;;5.14;100.00;101093.72;5077881;27;96902;-28
2024/01/06 07:11:20;;;;;;;0.47;0.43;;;;;;;5.13;100.00;101091.97;5077592;27;100980;-28
2024/01/06 07:13:46;;;;;;;1.15;0.90;;;;;;;5.06;100.00;101096.66;5096672;27;97987;-28
2024/01/06 07:16:11;;;;;;;0.40;0.40;;;;;;;4.98;100.00;101109.47;5096605;27;96696;-28
2024/01/06 07:18:37;;;;;;;0.45;0.43;;;;;;;5.02;100.00;101109.31;5096651;27;96806;-29
2024/01/06 07:21:06;;;;;;;0.22;0.15;;;;;;;5.07;100.00;101112.69;5077016;27;100821;-27
2024/01/06 07:23:31;;;;;;;0.05;0.05;;;;;;;5.06;100.00;101113.66;5077615;27;101136;-28
2024/01/06 07:25:57;;;;;;;0.20;0.20;;;;;;;5.05;100.00;101101.16;5096310;27;96518;-29
2024/01/06 07:28:23;;;;;;;1.13;0.60;;;;;;;5.11;100.00;101116.19;5096088;27;96812;-27
2024/01/06 07:30:48;;;;;;;0.00;0.00;;;;;;;5.07;100.00;101126.13;5095854;27;97434;-28
2024/01/06 07:33:13;;;;;;;1.23;0.68;;;;;;;5.02;100.00;101128.09;5095963;27;97364;-27
2024/01/06 07:35:43;;;;;;;1.83;0.38;;;;;;;4.97;100.00;101127.38;5096493;27;96544;-28
2024/01/06 07:38:10;;;;;;;0.20;0.20;;;;;;;5.13;100.00;101134.94;5096530;27;96898;-28
2024/01/06 07:40:36;;;;;;;0.43;0.35;;;;;;;5.21;100.00;101146.25;5077238;27;100810;-27
2024/01/06 07:43:01;;;;;;;1.90;0.70;;;;;;;5.17;100.00;101139.25;5077204;27;101403;-27
2024/01/06 07:45:27;;;;;;;0.55;0.40;;;;;;;5.19;100.00;101156.19;5095471;27;96823;-27
2024/01/06 07:47:52;;;;;;;3.47;0.30;;;;;;;5.16;100.00;101148.25;5095967;27;96781;-27
2024/01/06 07:50:18;;;;;;;0.13;0.13;;;;;;;5.14;100.00;101152.78;5095515;27;100077;-28
2024/01/06 07:52:43;;;;;;;0.55;0.40;;;;;;;5.18;100.00;101154.44;5095482;27;97790;-27
2024/01/06 07:55:08;;;;;;;1.95;0.77;;;;;;;5.15;100.00;101165.25;5096030;27;96479;-27
2024/01/06 07:57:34;;;;;;;0.52;0.45;;;;;;;5.05;100.00;101165.59;5095751;27;96868;-27
2024/01/06 08:00:00;;;;;;;4.88;0.35;;;;;;;5.01;100.00;101166.63;5095475;27;99859;-28
2024/01/06 08:02:26;;;;;;;0.57;0.57;;;;;;;5.06;100.00;101172.72;5095186;27;100014;-27
2024/01/06 08:04:51;;;;;;;0.73;0.55;;;;;;;5.06;100.00;101177.22;5095925;27;96584;-27
2024/01/06 08:07:16;;;;;;;0.40;0.13;;;;;;;5.08;100.00;101183.41;5095849;27;96605;-28
2024/01/06 08:09:42;;;;;;;0.08;0.08;;;;;;;5.06;100.00;101191.50;5095189;27;97991;-28
2024/01/06 08:12:08;;;;;;;0.98;0.88;;;;;;;5.07;100.00;101187.00;5095382;27;99233;-29
2024/01/06 08:14:33;;;;;;;1.02;0.63;;;;;;;5.03;100.00;101188.94;5095733;27;96652;-28
2024/01/06 08:16:58;;;;;;;0.40;0.40;;;;;;;5.07;100.00;101203.13;5095536;27;96775;-28
2024/01/06 08:19:24;;;;;;;0.43;0.40;;;;;;;5.05;100.00;101213.03;5095625;27;97895;-28
2024/01/06 08:21:49;;;;;;;1.05;0.90;;;;;;;4.95;100.00;101203.53;5095212;27;99322;-28
2024/01/06 08:24:15;;;;;;;0.55;0.38;;;;;;;5.06;100.00;101214.78;5095729;27;96462;-28
2024/01/06 08:26:40;;;;;;;0.47;0.38;;;;;;;5.01;100.00;101198.84;5096026;27;96804;-27
2024/01/06 08:29:05;;;;;;;1.45;0.55;;;;;;;5.02;100.00;101208.63;5095230;27;97958;-28
2024/01/06 08:31:30;;;;;;;0.40;0.30;;;;;;;4.99;100.00;101211.44;5095311;27;98322;-28
2024/01/06 08:33:56;;;;;;;0.52;0.47;;;;;;;5.05;100.00;101216.59;5094952;27;96513;-28
2024/01/06 08:36:21;;;;;;;3.85;1.38;;;;;;;5.05;100.00;101221.97;5095561;27;96934;-28
2024/01/06 08:38:47;;;;;;;4.05;0.82;;;;;;;5.02;100.00;101219.38;5095062;27;99428;-27
2024/01/06 08:41:12;;;;;;;0.20;0.20;;;;;;;5.09;100.00;101228.97;5097094;27;97801;-28
2024/01/06 08:43:37;;;;;;;0.30;0.30;;;;;;;5.03;100.00;101228.28;5098398;27;96489;-28
2024/01/06 08:46:03;;;;;;;0.28;0.28;;;;;;;4.99;100.00;101227.53;5097431;27;96956;-27
2024/01/06 08:48:28;;;;;;;0.40;0.35;;;;;;;4.98;100.00;101223.09;5098266;27;99627;-28
2024/01/06 08:50:53;;;;;;;0.28;0.28;;;;;;;4.98;100.00;101228.47;5098415;27;99164;-28
2024/01/06 08:53:19;;;;;;;0.70;0.70;;;;;;;4.93;100.00;101238.44;5098693;27;96620;-27
2024/01/06 08:55:44;;;;;;;0.57;0.57;;;;;;;4.92;100.00;101246.56;5098759;27;97791;-27
2024/01/06 08:58:09;;;;;;;1.23;0.50;;;;;;;4.93;100.00;101226.84;5098049;27;97720;-27
2024/01/06 09:00:35;;;;;;;0.40;0.25;;;;;;;5.05;100.00;101245.22;5097983;27;97803;-27
2024/01/06 09:03:00;;;;;;;0.57;0.57;;;;;;;5.06;100.00;101249.69;5096686;27;97149;-34
2024/01/06 09:05:25;;;;;;;0.93;0.80;;;;;;;5.07;100.00;101257.69;5096243;27;97102;-29
2024/01/06 09:07:52;;;;;;;0.60;0.55;;;;;;;5.05;100.00;101255.97;5095679;27;99417;-31
2024/01/06 09:10:18;;;;;;;1.00;0.60;;;;;;;5.05;100.00;101267.63;5095970;27;98423;-31
2024/01/06 09:12:43;;;;;;;3.95;0.73;;;;;;;5.02;100.00;101262.31;5095778;27;97676;-28
2024/01/06 09:15:09;;;;;;;0.47;0.47;;;;;;;5.01;100.00;101265.94;5096270;27;96994;-28
2024/01/06 09:17:34;;;;;;;0.32;0.30;;;;;;;5.08;100.00;101277.38;5078384;27;97974;-27
2024/01/06 09:20:00;;;;;;;1.83;1.02;;;;;;;4.93;100.00;101264.44;5098214;27;97787;-27
2024/01/06 09:22:25;;;;;;;0.25;0.20;;;;;;;4.98;100.00;101279.47;5097875;27;96572;-27
2024/01/06 09:24:50;;;;;;;1.80;0.98;;;;;;;4.96;100.00;101281.31;5098297;27;96821;-27
2024/01/06 09:27:16;;;;;;;0.47;0.47;;;;;;;4.99;100.00;101294.66;5097677;27;98736;-27
2024/01/06 09:29:41;;;;;;;0.28;0.28;;;;;;;5.04;100.00;101295.38;5097577;27;106703;-27
2024/01/06 09:32:07;;;;;;;0.77;0.70;;;;;;;5.02;100.00;101297.22;5097962;27;96549;-27
2024/01/06 09:34:32;;;;;;;0.60;0.57;;;;;;;5.08;100.00;101299.72;5098703;27;96770;-27
2024/01/06 09:36:57;;;;;;;1.63;0.68;;;;;;;5.07;100.00;101300.63;5097517;27;98841;-29
2024/01/06 09:39:22;;;;;;;0.77;0.73;;;;;;;5.08;100.00;101309.59;5097848;27;99090;-27
2024/01/06 09:41:48;;;;;;;0.32;0.32;;;;;;;5.03;100.00;101316.88;5098169;27;96524;-27
2024/01/06 09:44:13;;;;;;;0.88;0.77;;;;;;;5.03;100.00;101322.25;5097448;27;96840;-27
2024/01/06 09:46:40;;;;;;;0.38;0.30;;;;;;;4.95;100.00;101325.19;5096799;27;98918;-29
2024/01/06 09:49:06;;;;;;;1.27;0.43;;;;;;;4.96;100.00;101326.97;5078840;27;101264;-28
2024/01/06 09:51:33;;;;;;;0.32;0.32;;;;;;;5.01;100.00;101332.19;5096916;27;96720;-27
2024/01/06 09:54:01;;;;;;;0.38;0.22;;;;;;;5.03;100.00;101339.28;5079058;27;96870;-27
2024/01/06 09:56:28;;;;;;;0.35;0.20;;;;;;;5.07;100.00;101345.41;5078843;27;101503;-27
2024/01/06 09:58:54;;;;;;;0.35;0.35;;;;;;;5.07;100.00;101346.28;5078497;27;101047;-27
2024/01/06 10:01:19;;;;;;;0.52;0.47;;;;;;;5.10;100.00;101346.22;5078499;27;96558;-27
2024/01/06 10:03:47;;;;;;;0.93;0.52;;;;;;;5.11;100.00;101344.41;5098510;27;96545;-27
2024/01/06 10:06:14;;;;;;;0.68;0.40;;;;;;;5.09;100.00;101347.13;5078465;27;101098;-27
2024/01/06 10:08:43;;;;;;;0.38;0.17;;;;;;;5.03;100.00;101346.41;5078526;27;101028;-27
2024/01/06 10:11:09;;;;;;;0.35;0.35;;;;;;;4.97;100.00;101344.81;5078345;27;96589;-27
2024/01/06 10:13:34;;;;;;;0.68;0.32;;;;;;;5.04;100.00;101358.94;5097252;27;97380;-28
2024/01/06 10:16:00;;;;;;;0.70;0.45;;;;;;;5.05;100.00;101353.53;5097254;27;97917;-27
2024/01/06 10:18:29;;;;;;;0.75;0.52;;;;;;;5.05;100.00;101355.31;5097031;27;99655;-29
2024/01/06 10:20:55;;;;;;;0.30;0.30;;;;;;;5.03;100.00;101354.47;5078811;27;96754;-27
2024/01/06 10:23:23;;;;;;;0.43;0.40;;;;;;;5.10;100.00;101372.16;5097333;27;96767;-27
2024/01/06 10:25:52;;;;;;;0.17;0.17;;;;;;;5.04;100.00;101362.50;5097222;27;97830;-28
2024/01/06 10:28:17;;;;;;;0.60;0.52;;;;;;;5.01;100.00;101359.03;5097213;27;97258;-27
2024/01/06 10:30:43;;;;;;;0.60;0.43;;;;;;;5.06;100.00;101366.00;5097399;27;96665;-27
2024/01/06 10:33:10;;;;;;;0.55;0.55;;;;;;;5.06;100.00;101366.00;5097147;27;96796;-27
2024/01/06 10:35:36;;;;;;;0.17;0.17;;;;;;;5.16;100.00;101371.09;5077769;27;100928;-27
2024/01/06 10:38:03;;;;;;;0.30;0.30;;;;;;;5.24;100.00;101386.06;5078273;27;100774;-28
2024/01/06 10:40:28;;;;;;;0.82;0.77;;;;;;;5.22;100.00;101390.59;5078430;27;96670;-27
2024/01/06 10:42:57;;;;;;;0.30;0.30;;;;;;;5.23;100.00;101392.34;5097242;27;96836;-27
2024/01/06 10:45:23;;;;;;;0.85;0.77;;;;;;;5.33;100.00;101401.00;5096312;27;97917;-27
2024/01/06 10:47:49;;;;;;;0.25;0.20;;;;;;;5.35;100.00;101390.22;5096483;27;99312;-27
2024/01/06 10:50:17;;;;;;;0.85;0.75;;;;;;;5.31;100.00;101392.09;5078242;27;96615;-29
2024/01/06 10:52:43;;;;;;;0.22;0.13;;;;;;;5.28;100.00;101390.41;5078473;27;96969;-27
2024/01/06 10:55:09;;;;;;;1.25;0.82;;;;;;;5.22;100.00;101393.28;5077708;27;101308;-28
2024/01/06 10:57:37;;;;;;;0.20;0.20;;;;;;;5.21;100.00;101398.69;5096248;27;99093;-28
2024/01/06 11:00:05;;;;;;;0.35;0.22;;;;;;;5.24;100.00;101393.22;5077776;27;96735;-27
2024/01/06 11:02:31;;;;;;;0.70;0.68;;;;;;;5.18;100.00;101404.16;5077743;27;96773;-28
2024/01/06 11:04:57;;;;;;;0.50;0.38;;;;;;;5.07;100.00;101397.28;5077441;27;100798;-28
2024/01/06 11:07:25;;;;;;;4.07;0.98;;;;;;;5.00;100.00;101395.72;5096366;27;97939;-27
2024/01/06 11:09:51;;;;;;;1.20;0.73;;;;;;;5.13;100.00;101406.13;5077929;27;96568;-28
2024/01/06 11:12:16;;;;;;;0.63;0.32;;;;;;;5.14;100.00;101410.56;5096446;27;96832;-27
2024/01/06 11:14:42;;;;;;;0.60;0.52;;;;;;;5.14;100.00;101411.44;5096214;27;97802;-27
2024/01/06 11:17:07;;;;;;;0.93;0.55;;;;;;;5.18;100.00;101413.09;5096560;27;100097;-29